Airfield :
LOGIN :

Register | Disclaimer

   EN    FR    IT 

 










Legend :    VFR   Marginal VFR   IFR   Intensive IFR   Very Intensive IFR
Visi :
Ceiling :
>= 8 km
>= 3000ft
5 to 8 km
1000 to 3000 ft
1500m to 5 km
500 to 1000 ft
800 to 1500m
200 to 500 ft
< 800m
< 200 ft
Symbols :   Thunderstorms  Fog  Heavy snow  Heavy precipitations  Wind > 20 kt
SIGMETs :     Misc.  Thunderstorms  Icing  Turbulence  Mountain Waves  Volcanic Ashes






- Airport Elevation : 1202 ft
- IATA code : IGS


ETSI - Ingolstadt

CURRENT METAR :
  • 122120Z AUTO VRB03KT 9999 // ////// 04/03 Q1004 ///

EXPIRED METARs :
  • 122020Z AUTO 17002KT 9999 // ////// 03/03 Q1005 ///
  • 121920Z AUTO 00000KT 9999 // ////// 04/03 Q1005 ///

TAF AMD TAF ETSI
Valid from the 12 at 15:00 until the 13 at 00:00 UTC


121504Z 1215/1224 20004KT 9999 NSW FEW010 SCT040 BKN095
BECMG 1217/1219 14003KT 9999 NSW FEW008 BKN040 BKN090
TEMPO 1219/1222 14002KT 3000 -RADZ SCT004 OVC030
TEMPO 1223/1224 14002KT 1500 -RASN BKN004 OVC020 CANCEL 1620



MET'MAP, your aeronautical weather chart ! - Copyright ORBIFLY December 2007 - Disclaimer

ORBIFLY MET'MAP TEAM :

Programming & Development : Alexandra Zaïnal
Concept & Development : Baudouin d'Aumeries
Co-Development & Prog : Marc-Olivier Méhu
Technical & hardware support : Manuel Goepfert

Contact : metmap@orbifly.com




SOURCES & CREDITS :

   NOAA